Time;durP1;ratioP1;P1;durP2;ratioP2;P2;SDS_P1;SDS_P2;PMS_P1;PMS_P2;Temp;Humidity;BMP_temperature;BMP_pressure;BME280_temperature;BME280_humidity;BME280_pressure;Samples;Min_cycle;Max_cycle;Signal;HPM_P1;HPM_P2
2023/06/17 00:01:18;;;;;;;3.13;1.80;;;;;;;18.41;100.00;94178.25;5081862;28;20451;-81
2023/06/17 00:03:45;;;;;;;2.50;2.30;;;;;;;18.38;100.00;94186.63;5080897;28;20438;-80
2023/06/17 00:06:12;;;;;;;2.07;1.93;;;;;;;18.35;100.00;94179.03;5078647;28;20798;-80
2023/06/17 00:08:39;;;;;;;2.30;2.10;;;;;;;18.35;100.00;94165.75;5076238;28;20440;-79
2023/06/17 00:14:42;;;;;;;9.33;2.73;;;;;;;18.38;100.00;94167.19;5078194;28;20392;-80
2023/06/17 00:17:10;;;;;;;2.10;2.00;;;;;;;18.39;100.00;94172.31;5078694;28;20475;-80
2023/06/17 00:19:38;;;;;;;2.57;1.93;;;;;;;18.41;100.00;94164.97;5077849;28;20457;-80
2023/06/17 00:22:08;;;;;;;2.07;1.97;;;;;;;18.54;100.00;94166.91;5079163;28;20528;-80
2023/06/17 00:24:35;;;;;;;1.80;1.70;;;;;;;18.54;100.00;94169.56;5017435;28;20502;-81
2023/06/17 00:27:03;;;;;;;2.00;1.80;;;;;;;18.56;100.00;94171.00;5093265;28;20443;-79
2023/06/17 00:29:29;;;;;;;6.60;2.53;;;;;;;18.53;100.00;94179.38;5093968;28;20450;-81
2023/06/17 00:31:57;;;;;;;2.00;1.90;;;;;;;18.49;100.00;94177.28;5094262;28;20423;-80
2023/06/17 00:34:25;;;;;;;4.33;2.00;;;;;;;18.46;100.00;94167.03;5093689;28;20443;-79
2023/06/17 00:36:52;;;;;;;2.00;1.90;;;;;;;18.50;100.00;94168.28;5093430;28;20442;-80
2023/06/17 00:39:19;;;;;;;3.10;2.03;;;;;;;18.43;100.00;94168.25;5092566;28;20469;-80
2023/06/17 00:41:45;;;;;;;2.00;1.90;;;;;;;18.41;100.00;94164.97;5092277;28;20447;-79
2023/06/17 00:44:12;;;;;;;3.73;2.20;;;;;;;18.23;100.00;94164.69;5093275;28;20494;-80
2023/06/17 00:46:41;;;;;;;2.07;1.97;;;;;;;18.13;100.00;94158.88;5093093;28;20452;-80
2023/06/17 00:49:10;;;;;;;4.73;2.10;;;;;;;18.10;100.00;94168.03;5093122;28;20437;-80
2023/06/17 00:51:39;;;;;;;2.60;2.40;;;;;;;18.08;100.00;94170.06;5074562;28;20483;-81
2023/06/17 00:54:07;;;;;;;2.30;2.13;;;;;;;18.07;100.00;94163.13;5092870;28;20443;-80
2023/06/17 00:56:36;;;;;;;3.03;2.30;;;;;;;18.05;100.00;94159.03;5092891;28;20456;-80
2023/06/17 00:59:05;;;;;;;2.07;1.97;;;;;;;18.06;100.00;94160.66;5092162;28;20437;-80
2023/06/17 01:01:35;;;;;;;4.03;2.50;;;;;;;18.00;100.00;94161.44;5078110;28;20454;-79
2023/06/17 01:04:04;;;;;;;2.80;2.07;;;;;;;17.98;100.00;94158.97;5075254;28;20462;-80
2023/06/17 01:06:38;;;;;;;2.20;2.00;;;;;;;17.99;100.00;94160.63;5075036;28;20953;-80
2023/06/17 01:09:11;;;;;;;2.67;2.47;;;;;;;17.99;100.00;94170.41;5075148;28;20434;-80
2023/06/17 01:11:40;;;;;;;2.80;2.27;;;;;;;18.01;100.00;94160.44;5074756;28;20559;-80
2023/06/17 01:14:10;;;;;;;10.73;2.40;;;;;;;18.00;100.00;94162.25;5074954;28;20456;-79
2023/06/17 01:16:42;;;;;;;4.23;2.47;;;;;;;18.00;100.00;94161.44;5074612;28;20543;-80
2023/06/17 01:19:18;;;;;;;2.80;2.60;;;;;;;18.03;100.00;94161.06;5074625;28;20493;-79
2023/06/17 01:21:48;;;;;;;2.90;2.70;;;;;;;18.05;100.00;94159.03;5074979;28;20465;-80
2023/06/17 01:24:25;;;;;;;2.90;2.30;;;;;;;18.00;100.00;94158.78;5074369;28;20431;-80
2023/06/17 01:26:55;;;;;;;2.37;2.17;;;;;;;17.98;100.00;94152.84;5074607;28;20466;-80
2023/06/17 01:29:22;;;;;;;5.40;2.50;;;;;;;18.04;100.00;94149.41;5040467;28;20445;-79
2023/06/17 01:31:50;;;;;;;5.50;3.00;;;;;;;17.94;100.00;94153.25;5073797;28;21044;-80
2023/06/17 01:34:18;;;;;;;3.63;3.10;;;;;;;18.01;100.00;94158.59;5074006;28;20435;-80
2023/06/17 01:36:48;;;;;;;2.60;2.40;;;;;;;18.04;100.00;94157.38;5074462;28;20784;-79
2023/06/17 01:39:19;;;;;;;5.30;2.53;;;;;;;18.13;100.00;94161.53;5074037;28;20507;-80
2023/06/17 01:41:53;;;;;;;3.10;2.50;;;;;;;18.18;100.00;94159.09;5073916;28;20435;-80
2023/06/17 01:44:20;;;;;;;2.83;2.63;;;;;;;18.23;100.00;94156.72;5073893;28;20462;-80
2023/06/17 01:46:47;;;;;;;2.50;2.30;;;;;;;18.24;100.00;94151.19;5074073;28;20439;-80
2023/06/17 01:55:58;;;;;;;7.33;2.60;;;;;;;18.32;100.00;94158.19;5073706;28;20446;-79
2023/06/17 01:58:26;;;;;;;7.20;3.23;;;;;;;18.35;100.00;94147.16;5073514;28;20829;-79
2023/06/17 02:00:53;;;;;;;3.30;2.50;;;;;;;18.36;100.00;94154.13;5038978;28;20450;-79
2023/06/17 02:03:23;;;;;;;2.67;2.47;;;;;;;18.35;100.00;94143.69;5077773;28;20465;-80
2023/06/17 02:05:49;;;;;;;3.77;2.80;;;;;;;18.37;100.00;94150.44;5077982;28;20431;-80
2023/06/17 02:08:16;;;;;;;6.30;3.13;;;;;;;18.36;100.00;94153.28;5077893;28;20432;-79
2023/06/17 02:10:43;;;;;;;6.80;2.40;;;;;;;18.34;100.00;94145.53;5077590;28;20467;-79
2023/06/17 02:16:33;;;;;;;3.63;3.03;;;;;;;18.36;100.00;94150.63;5077575;28;20446;-80
2023/06/17 02:19:02;;;;;;;3.27;2.97;;;;;;;18.34;100.00;94148.19;5078026;28;20832;-80
2023/06/17 02:21:29;;;;;;;2.57;2.33;;;;;;;18.36;100.00;94150.63;5077715;28;20489;-80
2023/06/17 02:23:55;;;;;;;2.80;2.60;;;;;;;18.37;100.00;94147.78;5060609;28;20451;-79
2023/06/17 02:26:22;;;;;;;2.43;2.30;;;;;;;18.41;100.00;94143.72;5057096;28;20453;-79
2023/06/17 02:28:49;;;;;;;3.00;2.70;;;;;;;18.48;100.00;94143.75;5057848;28;20444;-79
2023/06/17 02:31:16;;;;;;;3.27;2.70;;;;;;;18.42;100.00;94133.91;5056887;28;20484;-81
2023/06/17 02:33:44;;;;;;;5.53;3.13;;;;;;;18.47;100.00;94142.09;5038867;28;20441;-80
2023/06/17 02:36:11;;;;;;;2.83;2.10;;;;;;;18.45;100.00;94136.19;5057614;28;20473;-78
2023/06/17 02:42:00;;;;;;;5.80;3.10;;;;;;;18.51;100.00;94146.84;5057144;28;20407;-80
2023/06/17 02:44:27;;;;;;;3.07;2.87;;;;;;;18.54;100.00;94159.75;5057289;28;20449;-79
2023/06/17 02:46:53;;;;;;;3.10;2.60;;;;;;;18.55;100.00;94157.91;5057062;28;20488;-79
2023/06/17 02:49:22;;;;;;;3.10;2.80;;;;;;;18.57;100.00;94147.91;5057082;28;20454;-80
2023/06/17 02:51:48;;;;;;;2.80;2.53;;;;;;;18.61;100.00;94154.47;5057035;28;20488;-79
2023/06/17 02:54:15;;;;;;;3.60;2.67;;;;;;;18.63;100.00;94154.28;5057245;28;20829;-79
2023/06/17 02:56:42;;;;;;;3.27;2.97;;;;;;;18.55;100.00;94158.72;5056903;28;20452;-80
2023/06/17 02:59:10;;;;;;;2.90;2.70;;;;;;;18.51;100.00;94152.16;5057159;28;20426;-79
2023/06/17 03:01:39;;;;;;;8.57;2.90;;;;;;;18.43;100.00;94157.63;5056881;28;20506;-81
2023/06/17 03:04:06;;;;;;;2.50;2.30;;;;;;;18.35;100.00;94157.78;5056734;28;20502;-79
2023/06/17 03:06:35;;;;;;;3.17;2.97;;;;;;;18.27;100.00;94157.94;5056443;28;20463;-79
2023/06/17 03:09:03;;;;;;;2.60;2.40;;;;;;;18.09;100.00;94160.28;5056572;28;20440;-79
2023/06/17 03:11:30;;;;;;;3.10;2.90;;;;;;;17.98;100.00;94163.47;5056191;28;20564;-80
2023/06/17 03:13:57;;;;;;;2.80;2.50;;;;;;;17.95;100.00;94170.00;5055849;28;20432;-81
2023/06/17 03:16:24;;;;;;;2.90;2.70;;;;;;;17.84;100.00;94171.31;5056456;28;20452;-80
2023/06/17 03:18:51;;;;;;;3.27;3.07;;;;;;;17.73;100.00;94176.34;5056666;28;20480;-80
2023/06/17 03:21:18;;;;;;;2.20;2.10;;;;;;;17.73;100.00;94181.63;5056457;28;20801;-80
2023/06/17 03:23:48;;;;;;;2.87;2.67;;;;;;;17.68;100.00;94184.88;5056392;28;20448;-81
2023/06/17 03:26:15;;;;;;;2.50;2.30;;;;;;;17.67;100.00;94179.72;5056319;28;20448;-80
2023/06/17 03:28:42;;;;;;;5.50;4.73;;;;;;;17.69;100.00;94181.22;5056078;28;20655;-80
2023/06/17 03:31:10;;;;;;;3.50;2.80;;;;;;;17.61;100.00;94173.31;5056394;28;20473;-80
2023/06/17 03:33:37;;;;;;;2.60;2.40;;;;;;;17.69;100.00;94181.22;5056373;28;20444;-81
2023/06/17 03:36:04;;;;;;;3.03;2.80;;;;;;;17.69;100.00;94178.56;5056098;28;20801;-80
2023/06/17 03:38:31;;;;;;;2.60;2.40;;;;;;;17.69;100.00;94177.72;5055922;28;20446;-80
2023/06/17 03:41:06;;;;;;;3.47;2.80;;;;;;;17.72;100.00;94180.81;5056961;28;20460;-79
2023/06/17 03:43:33;;;;;;;3.30;2.23;;;;;;;17.69;100.00;94183.03;5055946;28;20477;-80
2023/06/17 03:46:00;;;;;;;2.40;2.20;;;;;;;17.71;100.00;94187.13;5056290;28;20443;-76
2023/06/17 03:48:27;;;;;;;3.17;2.87;;;;;;;17.76;100.00;94191.88;5055764;28;20493;-80
2023/06/17 03:50:53;;;;;;;5.13;2.70;;;;;;;17.75;100.00;94199.00;5055779;28;20526;-79
2023/06/17 03:53:20;;;;;;;4.73;2.70;;;;;;;17.79;100.00;94210.88;5055639;28;20917;-79
2023/06/17 03:55:47;;;;;;;3.23;3.00;;;;;;;17.87;100.00;94207.25;5055645;28;20464;-78
2023/06/17 03:58:16;;;;;;;3.10;2.90;;;;;;;17.95;100.00;94212.47;5055727;28;20471;-78
2023/06/17 04:00:47;;;;;;;2.43;2.30;;;;;;;18.02;100.00;94209.84;5060526;28;20447;-78
2023/06/17 04:03:14;;;;;;;2.97;2.77;;;;;;;18.52;100.00;94214.94;5075614;28;20451;-77
2023/06/17 04:05:42;;;;;;;4.10;2.47;;;;;;;19.05;100.00;94217.03;5074912;28;20445;-77
2023/06/17 04:08:09;;;;;;;2.43;2.23;;;;;;;19.55;100.00;94212.34;5073547;28;20441;-77
2023/06/17 04:10:36;;;;;;;1.80;1.70;;;;;;;19.98;100.00;94221.63;5075506;28;20433;-77
2023/06/17 04:13:03;;;;;;;3.27;2.17;;;;;;;20.37;100.00;94226.13;5075034;28;20450;-78
2023/06/17 04:15:31;;;;;;;2.07;1.97;;;;;;;20.70;100.00;94226.09;5075122;28;20449;-77
2023/06/17 04:17:58;;;;;;;2.43;2.23;;;;;;;20.95;100.00;94233.44;5074683;28;20463;-78
2023/06/17 04:20:25;;;;;;;2.20;2.00;;;;;;;21.12;99.96;94239.16;5075213;28;20451;-78
2023/06/17 04:22:52;;;;;;;4.60;2.77;;;;;;;21.40;99.11;94234.34;5075172;28;20435;-78
2023/06/17 04:25:20;;;;;;;2.93;2.20;;;;;;;21.56;97.76;94241.03;5073691;28;20452;-78
2023/06/17 04:27:48;;;;;;;5.13;2.20;;;;;;;21.67;97.36;94239.53;5074749;28;20475;-77
2023/06/17 04:30:16;;;;;;;2.50;2.30;;;;;;;21.77;97.13;94232.72;5075230;28;20441;-82
2023/06/17 04:32:44;;;;;;;2.47;2.23;;;;;;;21.77;96.58;94246.06;5075005;28;20482;-86
2023/06/17 04:35:11;;;;;;;3.77;2.67;;;;;;;21.87;96.14;94242.91;5073443;28;20459;-81
2023/06/17 04:37:40;;;;;;;2.30;2.20;;;;;;;22.08;95.21;94247.94;5075059;28;20483;-79
2023/06/17 04:40:11;;;;;;;3.00;1.90;;;;;;;22.20;93.65;94248.88;5075298;28;20445;-77
2023/06/17 04:42:40;;;;;;;2.90;2.20;;;;;;;22.29;91.29;94246.78;5057015;28;20481;-78
2023/06/17 04:45:09;;;;;;;2.70;2.20;;;;;;;22.00;90.33;94237.50;5074916;28;20433;-80
2023/06/17 04:47:36;;;;;;;2.53;2.33;;;;;;;21.74;90.60;94245.66;5074833;28;20463;-79
2023/06/17 04:50:05;;;;;;;5.10;2.20;;;;;;;21.47;92.28;94240.47;5074679;28;20963;-80
2023/06/17 04:52:32;;;;;;;5.73;2.77;;;;;;;21.19;94.25;94237.28;5074826;28;20488;-80
2023/06/17 04:54:59;;;;;;;4.03;2.40;;;;;;;20.90;96.03;94242.06;5074158;28;20454;-80
2023/06/17 04:57:26;;;;;;;4.87;2.67;;;;;;;20.64;97.53;94242.13;5038942;28;20479;-80
2023/06/17 04:59:53;;;;;;;4.93;2.53;;;;;;;20.38;100.00;94233.09;5074374;28;20450;-80
2023/06/17 05:02:20;;;;;;;7.90;2.17;;;;;;;20.16;100.00;94239.66;5074782;28;20495;-80
2023/06/17 05:04:47;;;;;;;3.23;2.83;;;;;;;20.01;100.00;94233.72;5074027;28;20445;-79
2023/06/17 05:07:15;;;;;;;4.10;2.40;;;;;;;19.85;100.00;94232.25;5073407;28;20465;-76
2023/06/17 05:09:42;;;;;;;2.73;2.53;;;;;;;19.74;100.00;94236.34;5074557;28;20441;-78
2023/06/17 05:12:09;;;;;;;3.33;2.50;;;;;;;19.66;100.00;94228.56;5073863;28;20828;-77
2023/06/17 05:14:35;;;;;;;8.90;2.10;;;;;;;19.61;100.00;94241.63;5069815;28;20443;-78
2023/06/17 05:17:02;;;;;;;2.87;2.17;;;;;;;19.49;100.00;94233.38;5019427;28;20493;-78
2023/06/17 05:19:29;;;;;;;2.33;2.13;;;;;;;19.44;100.00;94248.31;5063381;28;21132;-78
2023/06/17 05:21:56;;;;;;;3.33;2.30;;;;;;;19.35;100.00;94236.19;5074376;28;20452;-78
2023/06/17 05:24:24;;;;;;;6.73;2.70;;;;;;;19.28;100.00;94235.34;5029703;28;20456;-79
2023/06/17 05:26:50;;;;;;;3.13;2.30;;;;;;;19.17;100.00;94240.22;5067199;28;20578;-78
2023/06/17 05:29:17;;;;;;;2.60;2.10;;;;;;;19.12;100.00;94237.34;5067416;28;20519;-78
2023/06/17 05:31:44;;;;;;;2.40;2.20;;;;;;;19.05;100.00;94246.28;5054103;28;20495;-78
2023/06/17 05:34:11;;;;;;;5.20;2.70;;;;;;;18.95;100.00;94251.16;5073883;28;20494;-78
2023/06/17 05:36:38;;;;;;;2.77;2.00;;;;;;;18.94;100.00;94253.00;5059697;28;20453;-78
2023/06/17 05:39:05;;;;;;;2.53;2.30;;;;;;;18.95;100.00;94252.00;5054042;28;20450;-79
2023/06/17 05:41:33;;;;;;;3.23;2.97;;;;;;;18.92;100.00;94249.72;5053438;28;20457;-79
2023/06/17 05:43:59;;;;;;;2.40;2.10;;;;;;;18.86;100.00;94243.38;5067806;28;20850;-79
2023/06/17 05:46:26;;;;;;;1.70;1.60;;;;;;;18.65;100.00;94240.78;5073983;28;20501;-79
2023/06/17 05:48:53;;;;;;;6.23;2.30;;;;;;;18.52;100.00;94241.50;5073809;28;20453;-79
2023/06/17 05:51:20;;;;;;;2.33;2.00;;;;;;;18.34;100.00;94246.47;5073698;28;20491;-78
2023/06/17 05:53:59;;;;;;;3.10;2.10;;;;;;;18.18;100.00;94244.06;5073856;28;20969;-78
2023/06/17 05:56:26;;;;;;;2.03;1.90;;;;;;;18.03;100.00;94230.09;5074031;28;20523;-79
2023/06/17 05:58:56;;;;;;;4.80;1.80;;;;;;;17.88;100.00;94232.78;5018197;28;20474;-76
2023/06/17 06:01:22;;;;;;;3.20;2.17;;;;;;;17.86;100.00;94234.81;5054286;28;20448;-77
2023/06/17 06:03:49;;;;;;;3.30;2.07;;;;;;;17.78;100.00;94240.25;5054012;28;20446;-77
2023/06/17 06:06:18;;;;;;;2.43;2.23;;;;;;;17.75;100.00;94246.78;5053828;28;20459;-77
2023/06/17 06:08:44;;;;;;;3.20;2.00;;;;;;;17.76;100.00;94240.47;5053602;28;20478;-78
2023/06/17 06:11:11;;;;;;;2.47;1.63;;;;;;;17.70;100.00;94246.53;5053480;28;20974;-77
2023/06/17 06:13:38;;;;;;;1.90;1.70;;;;;;;17.64;100.00;94252.56;5053472;28;20443;-77
2023/06/17 06:16:06;;;;;;;2.10;1.87;;;;;;;17.60;100.00;94260.06;5053315;28;20458;-78
2023/06/17 06:18:33;;;;;;;1.70;1.60;;;;;;;17.55;100.00;94254.50;5053130;28;20444;-78
2023/06/17 06:21:00;;;;;;;2.00;1.53;;;;;;;17.52;100.00;94260.19;5018240;28;20985;-78
2023/06/17 06:23:27;;;;;;;2.30;2.10;;;;;;;17.49;100.00;94265.03;5053238;28;20463;-76
2023/06/17 06:25:53;;;;;;;2.90;2.70;;;;;;;17.51;100.00;94263.03;5053280;28;20938;-76
2023/06/17 06:28:20;;;;;;;5.50;2.67;;;;;;;17.54;100.00;94267.94;5053642;28;20437;-77
2023/06/17 06:30:47;;;;;;;2.73;2.10;;;;;;;17.55;100.00;94269.59;5053702;28;20447;-80
2023/06/17 06:33:15;;;;;;;1.60;1.50;;;;;;;17.58;100.00;94271.88;5053472;28;20479;-78
2023/06/17 06:35:43;;;;;;;1.50;1.40;;;;;;;17.59;100.00;94279.63;5052684;28;20815;-77
2023/06/17 06:38:10;;;;;;;3.20;1.90;;;;;;;17.63;100.00;94272.13;5052743;28;20782;-79
2023/06/17 06:40:37;;;;;;;3.90;2.47;;;;;;;17.65;100.00;94272.78;5053014;28;20515;-78
2023/06/17 06:43:04;;;;;;;3.73;2.13;;;;;;;17.74;100.00;94279.63;5052995;28;20487;-78
2023/06/17 06:45:31;;;;;;;2.27;2.07;;;;;;;17.71;100.00;94265.94;5053182;28;20528;-77
2023/06/17 06:47:58;;;;;;;2.50;2.30;;;;;;;17.68;100.00;94269.78;5034892;28;20421;-77
2023/06/17 06:50:26;;;;;;;3.80;2.37;;;;;;;17.63;100.00;94262.31;5036849;28;20520;-77
2023/06/17 06:52:53;;;;;;;2.10;1.90;;;;;;;17.62;100.00;94262.53;5056609;28;20503;-77
2023/06/17 06:55:20;;;;;;;2.05;1.95;;;;;;;17.65;100.00;94259.53;5056862;28;20485;-78
2023/06/17 06:57:47;;;;;;;4.70;2.07;;;;;;;17.63;100.00;94266.81;5056826;28;20233;-77
2023/06/17 07:00:15;;;;;;;1.60;1.50;;;;;;;17.67;100.00;94268.13;5056676;28;20448;-77
2023/06/17 07:02:42;;;;;;;1.90;1.80;;;;;;;17.68;100.00;94264.47;5037367;28;20429;-77
2023/06/17 07:05:09;;;;;;;2.53;2.33;;;;;;;17.68;100.00;94261.81;5034658;28;20452;-79
2023/06/17 07:07:37;;;;;;;2.80;1.63;;;;;;;17.58;100.00;94248.00;5041181;28;20958;-80
2023/06/17 07:10:05;;;;;;;3.10;2.27;;;;;;;17.56;100.00;94257.97;5055989;28;20783;-79
2023/06/17 07:12:32;;;;;;;5.50;2.80;;;;;;;17.54;100.00;94260.81;5055862;28;20500;-77
2023/06/17 07:14:58;;;;;;;1.90;1.80;;;;;;;17.57;100.00;94262.25;5052002;28;20469;-78
2023/06/17 07:17:25;;;;;;;3.53;2.40;;;;;;;17.64;100.00;94257.88;5056414;28;20450;-78
2023/06/17 07:19:52;;;;;;;2.70;2.50;;;;;;;17.65;100.00;94259.53;5055770;28;20446;-78
2023/06/17 07:22:19;;;;;;;3.00;2.70;;;;;;;17.67;100.00;94254.03;5056215;28;20443;-80
2023/06/17 07:24:47;;;;;;;3.80;2.90;;;;;;;17.68;100.00;94264.47;5055790;28;20514;-78
2023/06/17 07:27:14;;;;;;;4.80;3.73;;;;;;;17.74;100.00;94258.41;5056172;28;20451;-78
2023/06/17 07:36:23;;;;;;;4.13;3.27;;;;;;;17.82;100.00;94279.50;5054075;28;20432;-79
2023/06/17 07:38:51;;;;;;;3.70;3.30;;;;;;;17.83;100.00;94275.84;5055103;28;20456;-79
2023/06/17 07:41:20;;;;;;;3.73;2.40;;;;;;;17.82;100.00;94284.00;5055255;28;20796;-78
2023/06/17 07:43:47;;;;;;;3.90;3.50;;;;;;;17.84;100.00;94284.63;5055014;28;20456;-78
2023/06/17 07:46:13;;;;;;;3.40;3.10;;;;;;;17.92;100.00;94281.84;5054677;28;20447;-78
2023/06/17 07:48:40;;;;;;;2.53;2.33;;;;;;;18.00;100.00;94272.94;5054324;28;20448;-78
2023/06/17 07:51:07;;;;;;;2.20;2.00;;;;;;;18.04;100.00;94280.34;5054737;28;20448;-78
2023/06/17 07:53:34;;;;;;;3.00;1.90;;;;;;;18.01;100.00;94283.38;5054560;28;20495;-78
2023/06/17 07:56:01;;;;;;;1.93;1.80;;;;;;;18.02;100.00;94292.97;5054656;28;20449;-78
2023/06/17 07:58:29;;;;;;;2.67;1.73;;;;;;;18.00;100.00;94289.69;5054012;28;20488;-78
2023/06/17 08:00:56;;;;;;;1.70;1.60;;;;;;;18.02;100.00;94292.16;5055004;28;20464;-77
2023/06/17 08:03:23;;;;;;;4.43;1.70;;;;;;;17.95;100.00;94289.44;5055160;28;20484;-77
2023/06/17 08:05:50;;;;;;;2.83;1.90;;;;;;;18.02;100.00;94292.97;5054856;28;20946;-77
2023/06/17 08:08:17;;;;;;;2.27;1.90;;;;;;;18.02;100.00;94297.47;5054711;28;20453;-78
2023/06/17 08:10:44;;;;;;;3.07;2.40;;;;;;;17.99;100.00;94297.84;5046053;28;20939;-79
2023/06/17 08:13:11;;;;;;;2.70;2.13;;;;;;;18.01;100.00;94298.47;5036693;28;20485;-79
2023/06/17 08:15:39;;;;;;;1.70;1.60;;;;;;;18.03;100.00;94299.09;5054181;28;20452;-83
2023/06/17 08:18:06;;;;;;;3.63;2.30;;;;;;;18.06;100.00;94298.72;5054593;28;20448;-80
2023/06/17 08:20:33;;;;;;;4.07;3.07;;;;;;;18.07;100.00;94300.38;5054392;28;20449;-80
2023/06/17 08:23:00;;;;;;;4.13;2.50;;;;;;;18.04;100.00;94298.91;5053959;28;20937;-80
2023/06/17 08:25:26;;;;;;;2.20;2.00;;;;;;;18.06;100.00;94298.72;5054401;28;20449;-77
2023/06/17 08:27:53;;;;;;;3.13;2.93;;;;;;;18.09;100.00;94304.47;5054080;28;20452;-78
2023/06/17 08:30:20;;;;;;;3.73;3.43;;;;;;;18.13;100.00;94302.25;5053855;28;20456;-78
2023/06/17 08:32:48;;;;;;;2.53;2.33;;;;;;;18.20;100.00;94300.47;5051348;28;20482;-77
2023/06/17 08:35:15;;;;;;;2.80;2.43;;;;;;;18.25;100.00;94304.22;5033476;28;20443;-77
2023/06/17 08:37:50;;;;;;;3.67;2.00;;;;;;;18.25;100.00;94306.06;5034010;28;20436;-80
2023/06/17 08:40:19;;;;;;;4.13;2.20;;;;;;;18.29;100.00;94302.00;5046267;28;20464;-78
2023/06/17 08:42:47;;;;;;;2.90;2.70;;;;;;;18.31;100.00;94302.63;5055057;28;20816;-80
2023/06/17 08:45:14;;;;;;;5.57;4.00;;;;;;;18.38;100.00;94297.38;5054616;28;20456;-78
2023/06/17 08:47:43;;;;;;;3.13;2.83;;;;;;;18.36;100.00;94302.88;5053809;28;20525;-78
2023/06/17 08:50:14;;;;;;;1.83;1.73;;;;;;;18.34;100.00;94298.78;5052844;28;20959;-78
2023/06/17 08:52:42;;;;;;;2.70;2.50;;;;;;;19.02;100.00;94297.22;5053609;28;20481;-77
2023/06/17 08:55:09;;;;;;;4.33;3.53;;;;;;;19.46;100.00;94296.84;5034713;28;20532;-78
2023/06/17 08:57:36;;;;;;;6.27;4.87;;;;;;;19.89;100.00;94296.56;5035944;28;20531;-78
2023/06/17 09:00:05;;;;;;;2.37;2.20;;;;;;;20.20;100.00;94294.16;5053884;28;20509;-77
2023/06/17 09:02:34;;;;;;;2.93;2.37;;;;;;;20.61;100.00;94303.88;5054448;28;20789;-77
2023/06/17 09:05:01;;;;;;;2.40;2.13;;;;;;;20.84;100.00;94301.59;5054056;28;20465;-78
2023/06/17 09:07:30;;;;;;;2.70;2.50;;;;;;;21.12;100.00;94293.34;5053853;28;20935;-79
2023/06/17 09:10:04;;;;;;;2.17;1.97;;;;;;;21.40;100.00;94309.09;5054216;28;20452;-77
2023/06/17 09:12:37;;;;;;;2.10;2.00;;;;;;;21.32;100.00;94303.97;5019118;28;20483;-79
2023/06/17 09:15:05;;;;;;;2.10;2.00;;;;;;;21.06;100.00;94306.66;5054149;28;20528;-80
2023/06/17 09:17:33;;;;;;;2.57;2.00;;;;;;;20.64;100.00;94306.13;5053720;28;20443;-79
2023/06/17 09:20:10;;;;;;;2.27;2.00;;;;;;;20.32;100.00;94305.88;5053026;28;20930;-78
2023/06/17 09:22:39;;;;;;;4.13;1.77;;;;;;;20.18;100.00;94301.53;5053395;28;20455;-81
2023/06/17 09:25:11;;;;;;;3.10;2.30;;;;;;;19.92;100.00;94301.50;5053140;28;20444;-78
2023/06/17 09:27:44;;;;;;;2.50;2.30;;;;;;;19.71;100.00;94305.97;5018870;28;20451;-79
2023/06/17 09:30:13;;;;;;;2.10;1.93;;;;;;;19.57;100.00;94306.94;5053318;28;20450;-78
2023/06/17 09:32:41;;;;;;;3.33;2.40;;;;;;;19.44;100.00;94301.53;5053426;28;21015;-79
2023/06/17 09:35:11;;;;;;;2.50;2.30;;;;;;;19.32;100.00;94311.91;5053352;28;20478;-79
2023/06/17 09:37:40;;;;;;;3.07;2.87;;;;;;;19.28;100.00;94315.16;5053360;28;20512;-77
2023/06/17 09:40:08;;;;;;;3.17;2.97;;;;;;;19.23;100.00;94310.44;5053308;28;20941;-79
2023/06/17 09:42:35;;;;;;;3.60;2.80;;;;;;;19.16;100.00;94306.94;5054064;28;20442;-79
2023/06/17 09:45:07;;;;;;;3.20;2.53;;;;;;;19.17;100.00;94312.06;5052324;28;20439;-80
2023/06/17 09:47:34;;;;;;;2.43;2.23;;;;;;;19.12;100.00;94305.69;5043592;28;20433;-80
2023/06/17 09:50:04;;;;;;;4.20;2.60;;;;;;;19.08;100.00;94305.25;5052856;28;20438;-79
2023/06/17 09:52:35;;;;;;;3.00;2.80;;;;;;;19.18;100.00;94308.38;5018878;28;20453;-79
2023/06/17 09:55:05;;;;;;;3.43;3.13;;;;;;;19.18;100.00;94304.88;5053559;28;20454;-78
2023/06/17 09:57:34;;;;;;;2.63;2.43;;;;;;;19.18;100.00;94303.06;5053485;28;20470;-78
2023/06/17 10:00:09;;;;;;;3.20;3.00;;;;;;;19.12;100.00;94301.19;5053229;28;20438;-78
2023/06/17 10:02:37;;;;;;;2.80;2.60;;;;;;;19.17;100.00;94306.72;5053697;28;20449;-78
2023/06/17 10:05:05;;;;;;;2.70;2.50;;;;;;;19.21;100.00;94311.66;5053942;28;20859;-79
2023/06/17 10:07:32;;;;;;;2.67;2.47;;;;;;;19.18;100.00;94303.06;5018659;28;20449;-77
2023/06/17 10:10:00;;;;;;;3.30;3.00;;;;;;;19.13;100.00;94313.47;5053187;28;20912;-78
2023/06/17 10:12:31;;;;;;;3.63;2.60;;;;;;;19.16;100.00;94313.06;5053728;28;20490;-79
2023/06/17 10:14:59;;;;;;;3.20;2.90;;;;;;;19.14;100.00;94317.75;5053237;28;20987;-79
2023/06/17 10:17:28;;;;;;;3.37;3.10;;;;;;;19.17;100.00;94319.22;5052959;28;20928;-80
2023/06/17 10:19:57;;;;;;;2.90;2.70;;;;;;;19.11;100.00;94323.47;5053760;28;20440;-79
2023/06/17 10:22:24;;;;;;;2.80;2.60;;;;;;;19.04;100.00;94314.63;5055345;28;20441;-77
2023/06/17 10:24:51;;;;;;;4.10;3.33;;;;;;;19.03;100.00;94320.13;5059279;28;20512;-79
2023/06/17 10:27:20;;;;;;;3.50;2.67;;;;;;;19.04;100.00;94319.13;5058281;28;20445;-79
2023/06/17 10:29:49;;;;;;;3.23;3.03;;;;;;;19.10;100.00;94313.88;5057672;28;20457;-79
2023/06/17 10:32:22;;;;;;;3.83;2.90;;;;;;;19.17;100.00;94314.72;5057923;28;20500;-79
2023/06/17 10:35:09;;;;;;;2.40;2.20;;;;;;;19.13;100.00;94324.09;5022780;28;20516;-80
2023/06/17 10:37:40;;;;;;;2.57;2.37;;;;;;;19.04;100.00;94325.25;5057260;28;20539;-79
2023/06/17 10:40:24;;;;;;;1.83;1.73;;;;;;;19.06;100.00;94317.91;5057932;28;20469;-79
2023/06/17 10:42:59;;;;;;;2.40;2.20;;;;;;;19.05;100.00;94318.09;5058261;28;20445;-79
2023/06/17 10:45:29;;;;;;;3.77;2.30;;;;;;;19.01;100.00;94315.00;5057496;28;20448;-80
2023/06/17 10:48:14;;;;;;;2.43;2.23;;;;;;;19.10;100.00;94321.84;5057679;28;20450;-80
2023/06/17 10:50:42;;;;;;;3.43;2.37;;;;;;;19.14;100.00;94322.25;5057049;28;20477;-79
2023/06/17 10:53:10;;;;;;;2.83;2.40;;;;;;;19.16;100.00;94323.72;5056521;28;20489;-79
2023/06/17 10:55:37;;;;;;;2.87;2.40;;;;;;;19.15;100.00;94330.03;5057359;28;20872;-81
2023/06/17 10:58:03;;;;;;;2.67;2.30;;;;;;;19.12;100.00;94329.63;5057390;28;20473;-79
2023/06/17 11:00:32;;;;;;;2.83;2.60;;;;;;;19.10;100.00;94324.50;5056351;28;20449;-80
2023/06/17 11:02:58;;;;;;;2.77;2.57;;;;;;;19.03;100.00;94333.44;5056527;28;20426;-79
2023/06/17 11:05:25;;;;;;;3.47;2.07;;;;;;;18.89;100.00;94329.88;5057379;28;20892;-80
2023/06/17 11:07:52;;;;;;;2.73;2.53;;;;;;;18.74;100.00;94339.78;5056714;28;20532;-78
2023/06/17 11:10:25;;;;;;;3.00;2.80;;;;;;;18.54;100.00;94329.00;5056253;28;20455;-79
2023/06/17 11:12:52;;;;;;;3.33;3.13;;;;;;;18.49;100.00;94329.53;5056757;28;20472;-79
2023/06/17 11:15:18;;;;;;;4.87;3.67;;;;;;;18.47;100.00;94326.25;5056305;28;20461;-79
2023/06/17 11:17:47;;;;;;;5.00;3.53;;;;;;;18.36;100.00;94324.13;5056250;28;20514;-79
2023/06/17 11:20:13;;;;;;;4.40;3.90;;;;;;;18.29;100.00;94331.22;5056093;28;20452;-81
2023/06/17 11:22:41;;;;;;;6.93;3.60;;;;;;;18.26;100.00;94340.41;5056246;28;20812;-78
2023/06/17 11:25:10;;;;;;;3.70;3.40;;;;;;;18.24;100.00;94325.66;5056383;28;20440;-78
2023/06/17 11:27:38;;;;;;;3.47;3.17;;;;;;;18.17;100.00;94330.88;5056197;28;20488;-81
2023/06/17 11:30:08;;;;;;;4.57;3.97;;;;;;;18.25;100.00;94332.63;5056409;28;20474;-78
2023/06/17 11:32:35;;;;;;;6.33;3.40;;;;;;;18.25;100.00;94343.25;5021231;28;20460;-78
2023/06/17 11:35:04;;;;;;;4.67;4.27;;;;;;;18.38;100.00;94340.69;5054992;28;20489;-79
2023/06/17 11:37:31;;;;;;;4.97;4.57;;;;;;;18.37;100.00;94339.06;5021084;28;20967;-78
2023/06/17 11:39:58;;;;;;;5.40;4.47;;;;;;;18.42;100.00;94341.94;5055693;28;20444;-78
2023/06/17 11:42:25;;;;;;;7.30;3.80;;;;;;;18.53;100.00;94344.09;5055844;28;20494;-79
2023/06/17 11:44:52;;;;;;;3.83;3.53;;;;;;;18.55;100.00;94336.75;5055926;28;20445;-78
2023/06/17 11:47:19;;;;;;;8.30;4.70;;;;;;;18.58;100.00;94336.38;5055395;28;20456;-77
2023/06/17 11:49:47;;;;;;;5.47;4.80;;;;;;;18.61;100.00;94329.03;5055743;28;20786;-78
2023/06/17 11:52:17;;;;;;;4.57;4.17;;;;;;;18.70;100.00;94327.91;5056079;28;20434;-79
2023/06/17 11:54:48;;;;;;;5.40;5.00;;;;;;;18.63;100.00;94332.34;5056128;28;20572;-79